Time,TemperatureF,DewpointF,PressureIn,WindDirection,WindDirectionDegrees,WindSpeedMPH,WindSpeedGustMPH,Humidity,HourlyPrecipIn,Conditions,Clouds,dailyrainin,SoftwareType,DateUTC
2013-04-18 00:03:00,33.3,23.2,30.31,SW,215,8.0,13.0,66,0.00,,SKC,0.00,VWS V12.07,2013-04-18 07:03:00,
2013-04-18 00:12:00,33.0,22.9,30.32,SSW,212,9.0,14.0,66,0.00,,SKC,0.00,VWS V12.07,2013-04-18 07:12:00,
2013-04-18 00:22:00,32.6,22.5,30.31,SW,216,7.0,14.0,66,0.00,,SKC,0.00,VWS V12.07,2013-04-18 07:22:00,
2013-04-18 00:32:00,32.6,22.5,30.32,SW,220,11.0,15.0,66,0.00,,SKC,0.00,VWS V12.07,2013-04-18 07:32:00,
2013-04-18 00:42:00,32.6,22.9,30.32,SW,219,12.0,15.0,67,0.00,,SKC,0.00,VWS V12.07,2013-04-18 07:42:00,
2013-04-18 00:52:00,32.5,23.1,30.31,SW,219,6.0,15.0,68,0.00,,SKC,0.00,VWS V12.07,2013-04-18 07:52:00,
2013-04-18 01:02:00,32.2,22.8,30.31,SW,222,12.0,12.0,68,0.00,,SKC,0.00,VWS V12.07,2013-04-18 08:02:00,
2013-04-18 01:12:00,32.2,22.8,30.32,SW,223,9.0,14.0,68,0.00,,SKC,0.00,VWS V12.07,2013-04-18 08:12:00,
2013-04-18 01:22:00,32.2,22.8,30.32,SW,224,10.0,14.0,68,0.00,,SKC,0.00,VWS V12.07,2013-04-18 08:22:00,
2013-04-18 01:32:00,32.0,23.0,30.31,SW,230,6.0,14.0,69,0.00,,SKC,0.00,VWS V12.07,2013-04-18 08:32:00,
2013-04-18 01:42:00,31.9,22.9,30.31,SW,224,9.0,16.0,69,0.00,,SKC,0.00,VWS V12.07,2013-04-18 08:42:00,
2013-04-18 01:52:00,31.9,22.9,30.32,SW,221,6.0,16.0,69,0.00,,SKC,0.00,VWS V12.07,2013-04-18 08:52:00,
2013-04-18 02:02:00,32.0,23.3,30.30,SW,223,7.0,12.0,70,0.00,,SKC,0.00,VWS V12.07,2013-04-18 09:02:00,
2013-04-18 02:12:00,31.9,23.2,30.30,SW,225,11.0,14.0,70,0.00,,SKC,0.00,VWS V12.07,2013-04-18 09:12:00,
2013-04-18 02:22:00,31.9,23.6,30.32,SW,216,7.0,15.0,71,0.00,,SKC,0.00,VWS V12.07,2013-04-18 09:22:00,
2013-04-18 02:32:00,31.7,23.4,30.31,SW,216,9.0,10.0,71,0.00,,SKC,0.00,VWS V12.07,2013-04-18 09:32:00,
2013-04-18 02:42:00,31.4,23.1,30.31,SW,222,9.0,13.0,71,0.00,,SKC,0.00,VWS V12.07,2013-04-18 09:42:00,
2013-04-18 02:52:00,31.6,23.3,30.31,SW,225,11.0,13.0,71,0.00,,SKC,0.00,VWS V12.07,2013-04-18 09:52:00,
2013-04-18 03:02:00,31.8,23.8,30.32,SW,225,8.0,14.0,72,0.00,,SKC,0.00,VWS V12.07,2013-04-18 10:02:00,
2013-04-18 03:12:00,32.0,24.0,30.31,SW,221,12.0,16.0,72,0.00,,SKC,0.00,VWS V12.07,2013-04-18 10:12:00,
2013-04-18 03:22:00,32.2,24.2,30.30,SW,221,9.0,16.0,72,0.00,,SKC,0.00,VWS V12.07,2013-04-18 10:22:00,
2013-04-18 03:32:00,32.3,24.0,30.30,SW,221,10.0,11.0,71,0.00,,SKC,0.00,VWS V12.07,2013-04-18 10:32:00,
2013-04-18 03:42:00,32.6,24.6,30.31,SW,227,9.0,15.0,72,0.00,,SKC,0.00,VWS V12.07,2013-04-18 10:42:00,
2013-04-18 03:52:00,33.0,24.6,30.31,SW,220,11.0,18.0,71,0.00,,SKC,0.00,VWS V12.07,2013-04-18 10:52:00,
2013-04-18 04:03:00,33.1,24.7,30.31,SW,221,0.0,12.0,71,0.00,,SKC,0.00,VWS V12.07,2013-04-18 11:03:00,
2013-04-18 04:13:00,33.1,24.7,30.31,SW,214,6.0,12.0,71,0.00,,SKC,0.00,VWS V12.07,2013-04-18 11:13:00,
2013-04-18 04:22:00,33.1,25.1,30.31,SSW,209,8.0,12.0,72,0.00,,SKC,0.00,VWS V12.07,2013-04-18 11:22:00,
2013-04-18 04:32:00,33.1,25.1,30.31,SW,217,7.0,10.0,72,0.00,,SKC,0.00,VWS V12.07,2013-04-18 11:32:00,
2013-04-18 04:42:00,33.3,25.3,30.32,SSW,213,9.0,14.0,72,0.00,,SKC,0.00,VWS V12.07,2013-04-18 11:42:00,
2013-04-18 04:52:00,33.3,25.3,30.30,SW,219,11.0,14.0,72,1.28,,SKC,1.28,VWS V12.07,2013-04-18 11:52:00,
2013-04-18 05:02:00,33.3,25.6,30.31,SW,218,5.0,16.0,73,1.28,,SKC,1.28,VWS V12.07,2013-04-18 12:02:00,
2013-04-18 05:12:00,33.2,25.2,30.31,SSW,212,9.0,16.0,72,1.28,,SKC,1.28,VWS V12.07,2013-04-18 12:12:00,
2013-04-18 05:22:00,33.1,25.1,30.31,SW,218,9.0,16.0,72,1.28,,SKC,1.28,VWS V12.07,2013-04-18 12:22:00,
2013-04-18 05:32:00,33.1,25.1,30.31,SW,214,8.0,10.0,72,1.28,,SKC,1.28,VWS V12.07,2013-04-18 12:32:00,
2013-04-18 05:42:00,32.8,25.1,30.31,SW,225,11.0,15.0,73,1.28,,SKC,1.28,VWS V12.07,2013-04-18 12:42:00,
2013-04-18 05:52:00,32.7,25.3,30.31,SW,217,10.0,16.0,74,1.28,,SKC,1.28,VWS V12.07,2013-04-18 12:52:00,
2013-04-18 06:02:00,32.5,24.8,30.31,SW,215,8.0,11.0,73,0.00,,SKC,1.28,VWS V12.07,2013-04-18 13:02:00,
2013-04-18 06:12:00,32.2,24.9,30.31,SW,215,5.0,12.0,74,0.00,,SKC,1.28,VWS V12.07,2013-04-18 13:12:00,
2013-04-18 06:22:00,32.0,24.7,30.31,SW,221,7.0,12.0,74,0.00,,SKC,1.28,VWS V12.07,2013-04-18 13:22:00,
2013-04-18 06:32:00,31.9,24.9,30.31,SW,216,11.0,13.0,75,0.00,,SKC,1.28,VWS V12.07,2013-04-18 13:32:00,
2013-04-18 06:42:00,32.2,24.9,30.32,SW,224,5.0,13.0,74,0.00,,SKC,1.28,VWS V12.07,2013-04-18 13:42:00,
2013-04-18 06:52:00,32.6,25.2,30.31,SW,225,5.0,14.0,74,0.00,,SKC,1.28,VWS V12.07,2013-04-18 13:52:00,
2013-04-18 07:02:00,33.5,25.8,30.32,SW,224,7.0,11.0,73,0.00,,SKC,1.28,VWS V12.07,2013-04-18 14:02:00,
2013-04-18 07:12:00,34.4,26.3,30.32,SSW,213,9.0,14.0,72,0.00,,SKC,1.28,VWS V12.07,2013-04-18 14:12:00,
2013-04-18 07:22:00,35.1,26.3,30.32,SW,215,9.0,14.0,70,0.00,,SKC,1.28,VWS V12.07,2013-04-18 14:22:00,
2013-04-18 07:32:00,35.5,26.4,30.32,SW,224,7.0,12.0,69,0.00,,SKC,1.28,VWS V12.07,2013-04-18 14:32:00,
2013-04-18 07:42:00,35.8,26.3,30.32,SW,226,7.0,14.0,68,0.00,,SKC,1.28,VWS V12.07,2013-04-18 14:42:00,
2013-04-18 07:52:00,36.4,26.9,30.32,SSW,212,7.0,16.0,68,0.00,,SKC,1.28,VWS V12.07,2013-04-18 14:52:00,
2013-04-18 08:02:00,36.8,26.9,30.32,SW,230,13.0,14.0,67,0.00,,SKC,1.28,VWS V12.07,2013-04-18 15:02:00,
2013-04-18 08:12:00,37.0,26.7,30.32,SSW,195,9.0,16.0,66,0.00,,SKC,1.28,VWS V12.07,2013-04-18 15:12:00,
2013-04-18 08:22:00,38.0,27.3,30.32,SSW,200,8.0,16.0,65,0.00,,SKC,1.28,VWS V12.07,2013-04-18 15:22:00,
2013-04-18 08:32:00,38.8,28.1,30.32,South,187,13.0,14.0,65,0.00,,SKC,1.28,VWS V12.07,2013-04-18 15:32:00,
2013-04-18 08:42:00,38.7,27.2,30.33,SW,215,7.0,15.0,63,0.00,,SKC,1.28,VWS V12.07,2013-04-18 15:42:00,
2013-04-18 08:52:00,39.7,28.1,30.33,SSW,196,5.0,15.0,63,0.00,,SKC,1.28,VWS V12.07,2013-04-18 15:52:00,
2013-04-18 09:02:00,41.2,28.8,30.33,South,188,8.0,11.0,61,0.00,,SKC,1.28,VWS V12.07,2013-04-18 16:02:00,
2013-04-18 09:12:00,41.7,28.4,30.32,South,187,6.0,12.0,59,0.00,,SKC,1.28,VWS V12.07,2013-04-18 16:12:00,
2013-04-18 09:22:00,42.1,28.4,30.33,South,184,4.0,12.0,58,0.00,,SKC,1.28,VWS V12.07,2013-04-18 16:22:00,
2013-04-18 09:32:00,42.4,28.7,30.33,SSW,205,7.0,10.0,58,0.00,,SKC,1.28,VWS V12.07,2013-04-18 16:32:00,
2013-04-18 09:42:00,43.3,29.1,30.32,SSW,212,4.0,11.0,57,0.00,,SKC,1.28,VWS V12.07,2013-04-18 16:42:00,
2013-04-18 09:52:00,43.7,28.6,30.32,SSW,205,6.0,11.0,55,0.00,,SKC,1.28,VWS V12.07,2013-04-18 16:52:00,
2013-04-18 10:02:00,44.7,29.5,30.32,SSW,200,7.0,10.0,55,0.00,,SKC,1.28,VWS V12.07,2013-04-18 17:02:00,
2013-04-18 10:12:00,44.9,28.8,30.32,SSW,198,4.0,10.0,53,0.00,,SKC,1.28,VWS V12.07,2013-04-18 17:12:00,
2013-04-18 10:22:00,45.6,29.5,30.34,SSW,198,2.0,10.0,53,0.00,,SKC,1.28,VWS V12.07,2013-04-18 17:22:00,
2013-04-18 10:32:00,46.5,29.8,30.33,SSW,198,2.0,6.0,52,0.00,,SKC,1.28,VWS V12.07,2013-04-18 17:32:00,
2013-04-18 10:42:00,46.8,29.2,30.32,WSW,248,9.0,10.0,50,0.00,,SKC,1.28,VWS V12.07,2013-04-18 17:42:00,
2013-04-18 10:52:00,46.1,29.9,30.31,West,259,5.0,10.0,53,0.00,,SKC,1.28,VWS V12.07,2013-04-18 17:52:00,
2013-04-18 11:02:00,46.2,30.0,30.33,West,261,0.0,5.0,53,0.00,,SKC,1.28,VWS V12.07,2013-04-18 18:02:00,
2013-04-18 11:12:00,48.4,30.6,30.33,SW,233,1.0,9.0,50,0.00,,SKC,1.28,VWS V12.07,2013-04-18 18:12:00,
2013-04-18 11:22:00,48.2,30.0,30.32,NW,313,3.0,9.0,49,0.00,,SKC,1.28,VWS V12.07,2013-04-18 18:22:00,
2013-04-18 11:32:00,48.1,30.4,30.32,NW,317,3.0,4.0,50,0.00,,SKC,1.28,VWS V12.07,2013-04-18 18:32:00,
2013-04-18 11:42:00,48.1,29.9,30.33,NNW,338,1.0,10.0,49,0.00,,SKC,1.28,VWS V12.07,2013-04-18 18:42:00,
2013-04-18 11:52:00,50.3,31.9,30.32,North,0,4.0,10.0,49,0.00,,SKC,1.28,VWS V12.07,2013-04-18 18:52:00,
2013-04-18 12:02:00,50.4,32.0,30.31,NNW,342,0.0,6.0,49,0.00,,SKC,1.28,VWS V12.07,2013-04-18 19:02:00,
2013-04-18 12:12:00,50.3,31.4,30.31,North,0,6.0,14.0,48,0.00,,SKC,1.28,VWS V12.07,2013-04-18 19:12:00,
2013-04-18 12:22:00,51.0,31.0,30.32,North,353,0.0,14.0,46,0.00,,SKC,1.28,VWS V12.07,2013-04-18 19:22:00,
2013-04-18 12:32:00,51.4,31.9,30.31,NNW,347,8.0,12.0,47,0.00,,SKC,1.28,VWS V12.07,2013-04-18 19:32:00,
2013-04-18 12:42:00,50.9,31.4,30.30,NNW,345,9.0,17.0,47,0.00,,SKC,1.28,VWS V12.07,2013-04-18 19:42:00,
2013-04-18 12:52:00,51.4,32.4,30.30,North,357,8.0,17.0,48,0.06,,SKC,1.58,VWS V12.07,2013-04-18 19:52:00,
2013-04-18 13:03:00,51.8,32.8,30.31,North,353,13.0,14.0,48,1.28,,SKC,2.56,VWS V12.07,2013-04-18 20:03:00,
2013-04-18 13:12:00,52.2,32.6,30.30,North,8,9.0,17.0,47,1.28,,SKC,2.56,VWS V12.07,2013-04-18 20:12:00,
2013-04-18 13:22:00,52.7,33.0,30.30,North,7,12.0,17.0,47,1.28,,SKC,2.56,VWS V12.07,2013-04-18 20:22:00,
2013-04-18 13:32:00,52.5,32.9,30.29,North,352,10.0,10.0,47,1.28,,SKC,2.56,VWS V12.07,2013-04-18 20:32:00,
2013-04-18 13:42:00,52.9,34.3,30.31,NE,39,14.0,19.0,49,1.28,,SKC,2.56,VWS V12.07,2013-04-18 20:42:00,
2013-04-18 13:52:00,53.2,34.5,30.30,NNE,23,15.0,23.0,49,1.28,,SKC,2.56,VWS V12.07,2013-04-18 20:52:00,
2013-04-18 14:02:00,53.4,34.7,30.30,NE,41,8.0,9.0,49,0.00,,SKC,2.56,VWS V12.07,2013-04-18 21:02:00,
2013-04-18 14:12:00,53.2,34.0,30.30,NNE,15,13.0,20.0,48,0.00,,SKC,2.56,VWS V12.07,2013-04-18 21:12:00,
2013-04-18 14:22:00,53.8,34.1,30.29,NNW,330,9.0,20.0,47,0.00,,SKC,2.56,VWS V12.07,2013-04-18 21:22:00,
2013-04-18 14:32:00,53.8,34.1,30.30,NW,323,7.0,18.0,47,0.00,,SKC,2.56,VWS V12.07,2013-04-18 21:32:00,
2013-04-18 14:42:00,54.4,34.6,30.29,NNW,330,6.0,18.0,47,0.00,,SKC,2.56,VWS V12.07,2013-04-18 21:42:00,
2013-04-18 14:52:00,54.6,34.8,30.28,NNW,344,9.0,28.0,47,0.00,,SKC,2.56,VWS V12.07,2013-04-18 21:52:00,
2013-04-18 15:02:00,55.6,35.7,30.28,NNW,342,24.0,24.0,47,0.00,,SKC,2.56,VWS V12.07,2013-04-18 22:02:00,
2013-04-18 15:12:00,54.7,34.9,30.30,NNW,347,2.0,24.0,47,0.00,,SKC,2.56,VWS V12.07,2013-04-18 22:12:00,
2013-04-18 15:22:00,55.4,36.1,30.29,NNW,345,0.0,24.0,48,0.00,,SKC,2.56,VWS V12.07,2013-04-18 22:22:00,
2013-04-18 15:32:00,55.0,35.2,30.28,North,357,9.0,18.0,47,0.00,,SKC,2.56,VWS V12.07,2013-04-18 22:32:00,
2013-04-18 15:42:00,54.7,35.9,30.29,North,10,14.0,21.0,49,0.00,,SKC,2.56,VWS V12.07,2013-04-18 22:42:00,
2013-04-18 15:52:00,55.5,35.6,30.27,North,351,16.0,21.0,47,0.00,,SKC,2.56,VWS V12.07,2013-04-18 22:52:00,
2013-04-18 16:02:00,55.0,35.2,30.27,NNE,14,9.0,16.0,47,0.00,,SKC,2.56,VWS V12.07,2013-04-18 23:02:00,
2013-04-18 16:12:00,54.9,35.1,30.28,NW,322,0.0,20.0,47,0.00,,SKC,2.56,VWS V12.07,2013-04-18 23:12:00,
2013-04-18 16:22:00,55.2,35.3,30.28,North,352,11.0,20.0,47,0.00,,SKC,2.56,VWS V12.07,2013-04-18 23:22:00,
2013-04-18 16:32:00,54.9,35.6,30.26,NW,316,5.0,7.0,48,0.00,,SKC,2.56,VWS V12.07,2013-04-18 23:32:00,
2013-04-18 16:42:00,54.8,36.0,30.25,NNW,346,13.0,14.0,49,0.00,,SKC,2.56,VWS V12.07,2013-04-18 23:42:00,
2013-04-18 16:52:00,54.8,36.0,30.26,NNW,339,11.0,15.0,49,0.00,,SKC,2.56,VWS V12.07,2013-04-18 23:52:00,
2013-04-18 17:02:00,54.5,36.3,30.26,NNW,348,3.0,12.0,50,0.00,,SKC,2.56,VWS V12.07,2013-04-19 00:02:00,
2013-04-18 17:12:00,54.8,36.0,30.26,NNE,22,11.0,16.0,49,0.00,,SKC,2.56,VWS V12.07,2013-04-19 00:12:00,
2013-04-18 17:22:00,54.7,36.4,30.26,North,351,13.0,16.0,50,0.00,,SKC,2.56,VWS V12.07,2013-04-19 00:22:00,
2013-04-18 17:32:00,54.5,36.3,30.27,NW,321,8.0,14.0,50,0.00,,SKC,2.56,VWS V12.07,2013-04-19 00:32:00,
2013-04-18 17:42:00,54.2,36.5,30.27,NNW,345,9.0,16.0,51,0.00,,SKC,2.56,VWS V12.07,2013-04-19 00:42:00,
2013-04-18 17:52:00,54.2,37.0,30.26,North,358,9.0,16.0,52,0.10,,SKC,2.66,VWS V12.07,2013-04-19 00:52:00,
2013-04-18 18:02:00,53.5,36.3,30.27,North,351,10.0,16.0,52,0.10,,SKC,2.66,VWS V12.07,2013-04-19 01:02:00,
2013-04-18 18:12:00,52.9,36.2,30.26,North,352,0.0,18.0,53,0.10,,SKC,2.66,VWS V12.07,2013-04-19 01:12:00,
2013-04-18 18:22:00,52.4,36.7,30.28,North,357,13.0,21.0,55,0.10,,SKC,2.66,VWS V12.07,2013-04-19 01:22:00,
2013-04-18 18:32:00,52.0,36.8,30.27,North,0,6.0,9.0,56,0.10,,SKC,2.66,VWS V12.07,2013-04-19 01:32:00,
2013-04-18 18:42:00,51.7,36.5,30.26,North,352,11.0,19.0,56,0.10,,SKC,2.66,VWS V12.07,2013-04-19 01:42:00,
2013-04-18 18:52:00,51.0,36.8,30.27,NNE,12,10.0,19.0,58,0.10,,SKC,2.66,VWS V12.07,2013-04-19 01:52:00,
2013-04-18 19:02:00,50.9,36.7,30.27,North,4,5.0,11.0,58,0.00,,SKC,2.66,VWS V12.07,2013-04-19 02:02:00,
2013-04-18 19:12:00,50.4,35.8,30.26,NNW,335,7.0,12.0,57,0.00,,SKC,2.66,VWS V12.07,2013-04-19 02:12:00,
2013-04-18 19:22:00,50.0,36.2,30.27,NNW,348,5.0,13.0,59,0.00,,SKC,2.66,VWS V12.07,2013-04-19 02:22:00,
2013-04-18 19:32:00,50.0,36.2,30.25,NNW,347,5.0,7.0,59,0.00,,SKC,2.66,VWS V12.07,2013-04-19 02:32:00,
2013-04-18 19:42:00,49.9,37.0,30.26,NNW,347,0.0,7.0,61,0.00,,SKC,2.66,VWS V12.07,2013-04-19 02:42:00,
2013-04-18 19:52:00,49.5,36.6,30.26,NNW,347,3.0,7.0,61,0.00,,SKC,2.66,VWS V12.07,2013-04-19 02:52:00,
2013-04-18 20:02:00,49.4,36.5,30.26,North,349,3.0,7.0,61,0.00,,SKC,2.66,VWS V12.07,2013-04-19 03:02:00,
2013-04-18 20:12:00,49.0,36.6,30.25,NNW,340,3.0,10.0,62,0.00,,SKC,2.66,VWS V12.07,2013-04-19 03:12:00,
2013-04-18 20:22:00,48.7,36.3,30.26,NNW,340,2.0,10.0,62,0.00,,SKC,2.66,VWS V12.07,2013-04-19 03:22:00,
2013-04-18 20:32:00,48.4,36.4,30.26,NNW,340,2.0,5.0,63,0.00,,SKC,2.66,VWS V12.07,2013-04-19 03:32:00,
2013-04-18 20:42:00,48.1,36.1,30.27,NNW,340,0.0,5.0,63,0.00,,SKC,2.66,VWS V12.07,2013-04-19 03:42:00,
2013-04-18 20:52:00,48.1,36.5,30.26,NNW,340,0.0,5.0,64,0.00,,SKC,2.66,VWS V12.07,2013-04-19 03:52:00,
2013-04-18 21:02:00,47.8,36.2,30.28,NNW,340,2.0,3.0,64,0.00,,SKC,2.66,VWS V12.07,2013-04-19 04:02:00,
2013-04-18 21:12:00,47.7,36.5,30.26,NNW,340,0.0,4.0,65,0.00,,SKC,2.66,VWS V12.07,2013-04-19 04:12:00,
2013-04-18 21:22:00,47.4,36.2,30.26,NW,324,4.0,7.0,65,0.00,,SKC,2.66,VWS V12.07,2013-04-19 04:22:00,
2013-04-18 21:32:00,46.8,36.0,30.27,WNW,299,3.0,7.0,66,0.00,,SKC,2.66,VWS V12.07,2013-04-19 04:32:00,
2013-04-18 21:42:00,46.5,36.2,30.26,WNW,298,0.0,7.0,67,0.00,,SKC,2.66,VWS V12.07,2013-04-19 04:42:00,
2013-04-18 21:52:00,46.5,36.2,30.27,WNW,298,3.0,7.0,67,0.00,,SKC,2.66,VWS V12.07,2013-04-19 04:52:00,
2013-04-18 22:02:00,46.3,36.0,30.28,WNW,298,2.0,5.0,67,0.00,,SKC,2.66,VWS V12.07,2013-04-19 05:02:00,
2013-04-18 22:12:00,46.0,35.7,30.26,WNW,298,2.0,5.0,67,0.00,,SKC,2.66,VWS V12.07,2013-04-19 05:12:00,
2013-04-18 22:27:00,45.6,35.7,30.27,WSW,240,5.0,8.0,68,0.00,,SKC,2.66,VWS V12.07,2013-04-19 05:27:00,
2013-04-18 22:37:00,45.5,35.9,30.26,WSW,240,4.0,6.0,69,0.00,,SKC,2.66,VWS V12.07,2013-04-19 05:37:00,
2013-04-18 22:46:00,45.2,35.3,30.26,SW,225,3.0,7.0,68,0.00,,SKC,2.66,VWS V12.07,2013-04-19 05:46:00,
2013-04-18 22:56:00,44.7,34.8,30.25,SW,225,5.0,7.0,68,0.00,,SKC,2.66,VWS V12.07,2013-04-19 05:56:00,
2013-04-18 23:02:00,44.4,34.9,30.26,SSW,212,6.0,7.0,69,0.00,,SKC,2.66,VWS V12.07,2013-04-19 06:02:00,
2013-04-18 23:12:00,44.0,34.9,30.24,SSW,205,7.0,10.0,70,0.00,,SKC,2.66,VWS V12.07,2013-04-19 06:12:00,
2013-04-18 23:22:00,44.0,34.9,30.24,SW,222,6.0,10.0,70,0.00,,SKC,2.66,VWS V12.07,2013-04-19 06:22:00,
2013-04-18 23:32:00,44.1,35.0,30.25,SW,228,7.0,12.0,70,0.00,,SKC,2.66,VWS V12.07,2013-04-19 06:32:00,
2013-04-18 23:42:00,44.1,35.0,30.25,WSW,239,7.0,12.0,70,0.00,,SKC,2.66,VWS V12.07,2013-04-19 06:42:00,
2013-04-18 23:52:00,44.1,35.0,30.25,SW,224,12.0,13.0,70,0.00,,SKC,2.66,VWS V12.07,2013-04-19 06:52:00,